createdAt,value
2019-04-25T07:11:43.709Z,99.90
2019-04-25T07:21:44.391Z,99.90
2019-04-25T07:31:44.846Z,99.90
2019-04-25T07:41:46.130Z,99.90
2019-04-25T07:51:47.410Z,91.10
2019-04-25T08:01:48.697Z,83.50
2019-04-25T08:11:49.946Z,67.20
2019-04-25T08:21:51.201Z,58.40
2019-04-25T08:31:53.538Z,57.90
2019-04-25T08:41:54.157Z,50.20
2019-04-25T08:51:55.800Z,43.70
2019-04-25T09:01:56.401Z,33.10
2019-04-25T09:11:57.682Z,30.30
2019-04-25T10:32:49.078Z,30.00
2019-04-25T10:42:51.096Z,33.30
2019-04-25T10:52:54.329Z,34.50
2019-04-25T11:02:54.894Z,34.30
2019-04-25T11:12:56.244Z,34.70
2019-04-25T11:22:57.530Z,35.80
2019-04-25T11:32:58.820Z,36.20
2019-04-25T11:43:00.094Z,34.30
2019-04-25T11:53:03.011Z,35.80
2019-04-25T12:03:03.715Z,35.80
2019-04-25T12:13:05.552Z,36.30
2019-04-25T12:23:10.419Z,36.20
2019-04-25T12:33:18.453Z,34.80
2019-04-25T12:43:15.553Z,35.80
2019-04-25T12:53:17.571Z,33.20
2019-04-25T13:03:19.066Z,33.10
2019-04-25T13:13:20.346Z,34.80
2019-04-25T13:23:21.616Z,32.90
2019-04-25T13:33:23.568Z,32.60
2019-04-25T13:43:24.274Z,32.60
2019-04-25T13:53:25.691Z,35.00
2019-04-25T14:03:27.301Z,35.20
2019-04-25T14:13:28.261Z,35.80
2019-04-25T14:23:29.542Z,33.50
2019-04-25T14:33:31.585Z,34.90
2019-04-25T14:43:33.548Z,34.80
2019-04-25T14:53:35.174Z,34.50
2019-04-25T15:03:35.675Z,34.10
2019-04-25T15:13:37.965Z,34.70
2019-04-25T15:23:39.418Z,36.00
2019-04-25T15:33:40.680Z,36.20
2019-04-25T15:43:41.938Z,35.70
2019-04-25T15:53:43.211Z,36.60
2019-04-25T16:03:44.480Z,37.00
2019-04-25T16:13:45.737Z,37.50
2019-04-25T16:23:47.009Z,37.70
2019-04-25T16:33:49.357Z,37.30
2019-04-25T16:43:51.411Z,39.70
2019-04-25T16:53:52.694Z,39.60
2019-04-25T17:03:53.974Z,40.30
2019-04-25T17:13:56.010Z,41.60
2019-04-25T17:23:57.286Z,41.60
2019-04-25T17:33:59.375Z,42.00
2019-04-25T17:44:01.120Z,42.00
2019-04-25T17:54:01.998Z,42.20
2019-04-25T18:04:04.033Z,45.00
2019-04-25T18:14:05.321Z,44.90
2019-04-25T18:24:06.581Z,45.30
2019-04-25T18:34:07.881Z,46.70
2019-04-25T18:54:17.712Z,47.30
2019-04-25T19:04:19.155Z,48.60
2019-04-25T19:14:20.493Z,48.00
2019-04-25T19:24:21.773Z,49.20
2019-04-25T19:34:23.051Z,51.80
2019-04-25T19:44:24.298Z,51.80
2019-04-25T19:54:25.557Z,50.90
2019-04-25T20:55:04.938Z,54.60
2019-04-25T21:05:06.981Z,63.70
2019-04-25T21:15:08.266Z,63.60
2019-04-25T21:25:10.310Z,96.80
2019-04-25T21:35:11.629Z,96.80
2019-04-25T21:45:12.914Z,99.90
2019-04-25T21:55:14.170Z,99.90
2019-04-25T22:05:15.482Z,99.90
2019-04-25T22:15:16.783Z,99.90
2019-04-25T22:25:18.110Z,99.90
2019-04-25T22:35:20.230Z,99.90
2019-04-25T22:45:21.562Z,99.90
2019-04-25T22:55:22.922Z,99.90
2019-04-25T23:05:24.263Z,99.90
2019-04-25T23:15:31.552Z,99.90
2019-04-25T23:25:33.647Z,99.90
2019-04-25T23:35:34.906Z,99.90
2019-04-25T23:45:36.190Z,99.90
2019-04-25T23:55:37.449Z,99.90
